createdAt,value
2019-04-30T00:01:36.159Z,17.40
2019-04-30T00:04:06.395Z,16.33
2019-04-30T00:06:39.341Z,13.97
2019-04-30T00:09:09.711Z,14.90
2019-04-30T00:11:37.393Z,23.87
2019-04-30T00:14:06.220Z,12.07
2019-04-30T00:16:36.199Z,11.33
2019-04-30T00:19:06.146Z,22.53
2019-04-30T00:21:36.119Z,15.10
2019-04-30T00:24:10.000Z,11.03
2019-04-30T00:26:35.616Z,14.37
2019-04-30T00:29:05.113Z,15.53
2019-04-30T00:31:35.016Z,13.73
2019-04-30T00:34:05.047Z,14.23
2019-04-30T00:36:37.257Z,11.97
2019-04-30T00:39:07.153Z,11.93
2019-04-30T00:41:39.939Z,12.60
2019-04-30T00:44:06.882Z,15.57
2019-04-30T00:46:36.478Z,12.10
2019-04-30T00:49:09.807Z,17.37
2019-04-30T00:51:35.888Z,17.00
2019-04-30T00:54:05.653Z,12.43
2019-04-30T00:56:35.512Z,17.40
2019-04-30T00:59:07.045Z,13.73
2019-04-30T01:01:43.484Z,18.33
2019-04-30T01:04:28.209Z,15.73
2019-04-30T01:07:00.284Z,19.03
2019-04-30T01:09:29.270Z,14.77
2019-04-30T01:11:57.996Z,16.00
2019-04-30T01:14:28.419Z,14.17
2019-04-30T01:16:59.293Z,15.60
2019-04-30T01:19:32.150Z,19.43
2019-04-30T01:21:59.445Z,16.80
2019-04-30T01:24:31.638Z,17.10
2019-04-30T01:27:06.698Z,14.90
2019-04-30T01:29:40.779Z,22.10
2019-04-30T01:32:03.456Z,27.20
2019-04-30T01:34:32.179Z,18.47
2019-04-30T01:37:00.941Z,12.20
2019-04-30T01:39:31.609Z,15.70
2019-04-30T01:42:02.999Z,19.53
2019-04-30T01:44:31.823Z,18.90
2019-04-30T01:47:00.557Z,13.83
2019-04-30T01:49:41.560Z,26.70
2019-04-30T01:52:00.970Z,40.97
2019-04-30T01:54:29.921Z,18.90
2019-04-30T01:57:19.314Z,18.33
2019-04-30T02:00:09.749Z,25.30
2019-04-30T02:02:39.915Z,23.97
2019-04-30T02:05:09.004Z,21.97
2019-04-30T02:07:40.148Z,29.57
2019-04-30T02:10:09.601Z,27.83
2019-04-30T02:12:39.259Z,20.00
2019-04-30T02:15:09.525Z,24.57
2019-04-30T02:17:38.913Z,42.07
2019-04-30T02:20:08.925Z,37.13
2019-04-30T02:22:38.946Z,32.17
2019-04-30T02:25:09.760Z,34.67
2019-04-30T02:27:39.070Z,42.27
2019-04-30T02:30:11.125Z,27.00
2019-04-30T02:32:40.438Z,26.83
2019-04-30T02:35:13.699Z,29.47
2019-04-30T02:38:01.303Z,21.20
2019-04-30T02:40:32.511Z,21.37
2019-04-30T02:43:02.093Z,22.07
2019-04-30T02:45:32.898Z,24.93
2019-04-30T02:48:03.487Z,19.40
2019-04-30T02:50:34.728Z,38.43
2019-04-30T02:53:05.756Z,23.27
2019-04-30T02:55:44.541Z,30.40
2019-04-30T02:58:13.445Z,23.73
2019-04-30T03:00:42.165Z,24.90
2019-04-30T03:03:10.887Z,24.77
2019-04-30T03:05:39.654Z,26.07
2019-04-30T03:08:09.663Z,26.43
2019-04-30T03:10:40.186Z,31.37
2019-04-30T03:13:09.856Z,46.77
2019-04-30T03:15:39.469Z,44.87
2019-04-30T03:18:13.032Z,27.13
2019-04-30T03:20:49.774Z,33.47
2019-04-30T03:23:19.549Z,34.67
2019-04-30T03:25:50.191Z,29.97
2019-04-30T03:28:20.233Z,28.57
2019-04-30T03:30:52.018Z,26.13
2019-04-30T03:33:22.943Z,30.07
2019-04-30T03:35:53.959Z,21.40
2019-04-30T03:38:21.587Z,24.80
2019-04-30T03:40:50.472Z,32.47
2019-04-30T03:43:20.387Z,23.30
2019-04-30T03:45:49.904Z,29.47
2019-04-30T03:48:20.025Z,32.33
2019-04-30T03:50:55.675Z,28.70
2019-04-30T03:53:20.208Z,33.97
2019-04-30T03:55:50.589Z,36.80
2019-04-30T03:58:21.169Z,45.97
2019-04-30T04:01:03.735Z,28.33
2019-04-30T04:03:34.154Z,52.57
2019-04-30T04:06:21.480Z,80.17
2019-04-30T04:09:01.027Z,63.50
2019-04-30T04:11:31.327Z,43.10
2019-04-30T04:14:00.044Z,40.60
2019-04-30T04:16:31.915Z,31.67
2019-04-30T04:18:59.457Z,29.33
2019-04-30T04:21:30.054Z,23.93
2019-04-30T04:24:00.203Z,25.70
2019-04-30T04:26:29.889Z,20.67
2019-04-30T04:28:59.441Z,27.03
2019-04-30T04:31:29.898Z,22.90
2019-04-30T04:34:00.073Z,26.80
2019-04-30T04:36:30.253Z,19.60
2019-04-30T04:39:00.417Z,22.27
2019-04-30T04:41:29.622Z,20.57
2019-04-30T04:44:00.206Z,22.40
2019-04-30T04:46:30.768Z,16.27
2019-04-30T04:48:59.767Z,14.73
2019-04-30T04:51:38.126Z,13.23
2019-04-30T04:54:00.148Z,15.80
2019-04-30T04:56:30.458Z,21.53
2019-04-30T04:59:00.233Z,15.27
2019-04-30T05:01:30.588Z,20.67
2019-04-30T05:03:59.313Z,22.27
2019-04-30T05:06:29.816Z,21.67
2019-04-30T05:08:59.177Z,16.07
2019-04-30T05:11:31.672Z,11.83
2019-04-30T05:13:59.914Z,13.33
2019-04-30T05:16:28.975Z,24.07
2019-04-30T05:18:58.655Z,17.60
2019-04-30T05:21:39.656Z,18.37
2019-04-30T05:23:59.080Z,14.77
2019-04-30T05:26:28.680Z,12.10
2019-04-30T05:28:59.171Z,10.20
2019-04-30T05:31:28.943Z,13.50
2019-04-30T05:33:58.721Z,10.57
2019-04-30T05:36:29.210Z,12.97
2019-04-30T05:38:58.749Z,11.20
2019-04-30T05:41:28.980Z,14.37
2019-04-30T05:43:59.125Z,13.47
2019-04-30T05:46:29.826Z,13.23
2019-04-30T05:48:59.436Z,18.53
2019-04-30T05:51:28.906Z,17.43
2019-04-30T05:53:59.264Z,13.37
2019-04-30T05:56:30.205Z,12.20
2019-04-30T05:58:59.310Z,12.37
2019-04-30T06:01:29.539Z,23.40
2019-04-30T06:03:59.443Z,14.53
2019-04-30T06:06:29.000Z,14.37
2019-04-30T06:09:14.766Z,14.77
2019-04-30T06:11:52.826Z,16.40
2019-04-30T06:14:47.992Z,22.53
2019-04-30T06:17:09.277Z,16.40
2019-04-30T06:19:39.148Z,14.80
2019-04-30T06:22:10.850Z,17.33
2019-04-30T06:24:39.552Z,14.87
2019-04-30T06:27:10.581Z,15.77
2019-04-30T06:29:39.660Z,13.93
2019-04-30T06:32:08.783Z,17.67
2019-04-30T06:34:41.835Z,20.03
2019-04-30T06:37:10.220Z,14.50
2019-04-30T06:39:38.947Z,9.33
2019-04-30T06:42:12.451Z,17.60
2019-04-30T06:44:41.863Z,14.83
2019-04-30T06:47:09.801Z,16.73
2019-04-30T06:49:39.376Z,13.23
2019-04-30T06:52:18.180Z,18.50
2019-04-30T06:54:39.787Z,16.27
2019-04-30T06:57:09.682Z,13.27
2019-04-30T06:59:39.731Z,14.33
2019-04-30T07:02:09.262Z,13.90
2019-04-30T07:04:40.025Z,16.03
2019-04-30T07:07:09.245Z,19.73
2019-04-30T07:09:55.922Z,16.57
2019-04-30T07:12:27.839Z,19.20
2019-04-30T07:14:54.266Z,16.47
2019-04-30T07:17:22.988Z,19.27
2019-04-30T07:19:56.536Z,14.30
2019-04-30T07:22:36.728Z,16.20
2019-04-30T07:24:52.708Z,15.70
2019-04-30T07:27:24.117Z,13.17
2019-04-30T07:29:52.049Z,14.40
2019-04-30T07:32:20.773Z,15.23
2019-04-30T07:34:49.940Z,13.77
2019-04-30T07:37:24.202Z,11.77
2019-04-30T07:39:49.455Z,18.73
2019-04-30T07:42:19.223Z,16.90
2019-04-30T07:44:50.246Z,13.07
2019-04-30T07:47:19.518Z,12.00
2019-04-30T07:49:52.967Z,15.23
2019-04-30T07:52:21.559Z,14.87
2019-04-30T07:54:51.876Z,13.23
2019-04-30T07:57:20.599Z,8.97
2019-04-30T07:59:49.840Z,14.07
2019-04-30T08:02:20.873Z,8.53
2019-04-30T08:04:51.319Z,14.90
2019-04-30T08:07:20.648Z,12.40
2019-04-30T08:09:49.576Z,12.23
2019-04-30T08:12:26.033Z,14.07
2019-04-30T08:14:50.187Z,22.33
2019-04-30T08:17:19.004Z,13.63
2019-04-30T08:19:48.965Z,15.40
2019-04-30T08:22:19.677Z,9.77
2019-04-30T08:24:49.178Z,14.47
2019-04-30T08:27:19.632Z,14.63
2019-04-30T08:29:49.937Z,14.43
2019-04-30T08:32:19.179Z,12.50
2019-04-30T08:34:50.116Z,13.00
2019-04-30T08:37:20.251Z,10.10
2019-04-30T08:39:49.685Z,15.87
2019-04-30T08:42:28.991Z,23.57
2019-04-30T08:44:49.279Z,13.10
2019-04-30T08:47:18.818Z,9.27
2019-04-30T08:49:50.017Z,12.20
2019-04-30T08:52:19.793Z,14.40
2019-04-30T08:54:49.599Z,9.53
2019-04-30T08:57:19.197Z,11.93
2019-04-30T08:59:49.470Z,8.83
2019-04-30T09:02:19.687Z,11.63
2019-04-30T09:04:50.286Z,13.27
2019-04-30T09:07:19.724Z,16.10
2019-04-30T09:09:48.915Z,15.80
2019-04-30T09:12:19.632Z,10.27
2019-04-30T09:14:49.104Z,11.53
2019-04-30T09:17:19.913Z,14.90
2019-04-30T09:19:49.125Z,24.10
2019-04-30T09:22:19.517Z,13.17
2019-04-30T09:24:49.678Z,10.40
2019-04-30T09:27:19.555Z,6.70
2019-04-30T09:29:49.202Z,12.50
2019-04-30T09:32:19.291Z,5.37
2019-04-30T09:34:48.933Z,11.57
2019-04-30T09:37:18.756Z,10.27
2019-04-30T09:39:49.430Z,8.80
2019-04-30T09:42:19.462Z,11.20
2019-04-30T09:44:49.233Z,10.50
2019-04-30T09:47:20.057Z,13.43
2019-04-30T09:49:49.406Z,7.43
2019-04-30T09:52:19.301Z,8.13
2019-04-30T09:54:50.084Z,9.77
2019-04-30T09:57:19.444Z,10.00
2019-04-30T09:59:48.697Z,9.03
2019-04-30T10:02:19.159Z,7.93
2019-04-30T10:04:49.761Z,9.07
2019-04-30T10:07:19.499Z,9.60
2019-04-30T10:09:50.664Z,7.37
2019-04-30T10:12:19.666Z,8.97
2019-04-30T10:14:49.502Z,42.43
2019-04-30T10:17:22.846Z,12.87
2019-04-30T10:19:51.720Z,8.73
2019-04-30T10:22:20.441Z,6.20
2019-04-30T10:24:49.509Z,8.20
2019-04-30T10:27:19.156Z,6.30
2019-04-30T10:29:49.354Z,6.57
2019-04-30T10:32:18.747Z,8.67
2019-04-30T10:34:47.951Z,9.27
2019-04-30T10:37:18.752Z,5.37
2019-04-30T10:39:48.998Z,6.83
2019-04-30T10:42:17.700Z,6.70
2019-04-30T10:44:46.416Z,6.87
2019-04-30T10:47:15.830Z,7.50
2019-04-30T10:49:44.670Z,5.13
2019-04-30T10:52:13.394Z,9.73
2019-04-30T10:54:42.115Z,4.73
2019-04-30T10:57:10.864Z,7.87
2019-04-30T10:59:39.678Z,7.33
2019-04-30T11:02:09.081Z,8.50
2019-04-30T11:04:39.609Z,6.77
2019-04-30T11:07:08.718Z,6.53
2019-04-30T11:09:39.379Z,6.33
2019-04-30T11:12:09.458Z,12.13
2019-04-30T11:14:38.357Z,10.10
2019-04-30T11:17:09.643Z,3.27
2019-04-30T11:19:39.058Z,9.93
2019-04-30T11:22:08.200Z,8.63
2019-04-30T11:24:53.394Z,6.90
2019-04-30T11:27:10.165Z,6.37
2019-04-30T11:29:39.379Z,7.93
2019-04-30T11:32:12.556Z,2.53
2019-04-30T11:34:41.644Z,4.33
2019-04-30T11:37:10.354Z,8.97
2019-04-30T11:39:39.080Z,6.30
2019-04-30T11:42:07.878Z,4.83
2019-04-30T11:44:38.665Z,7.87
2019-04-30T11:47:09.968Z,8.37
2019-04-30T11:49:39.527Z,9.23
2019-04-30T11:52:08.344Z,6.43
2019-04-30T11:54:48.755Z,6.63
2019-04-30T11:57:08.929Z,5.90
2019-04-30T11:59:39.536Z,6.63
2019-04-30T12:02:10.135Z,6.80
2019-04-30T12:04:39.424Z,7.57
2019-04-30T12:07:18.792Z,8.00
2019-04-30T12:09:53.110Z,5.77
2019-04-30T12:12:21.826Z,7.37
2019-04-30T12:14:50.543Z,6.37
2019-04-30T12:17:19.298Z,5.97
2019-04-30T12:19:48.861Z,6.03
2019-04-30T12:22:20.014Z,5.30
2019-04-30T12:24:48.880Z,4.20
2019-04-30T12:27:18.773Z,7.63
2019-04-30T12:29:49.470Z,6.10
2019-04-30T12:32:19.217Z,10.27
2019-04-30T12:34:48.489Z,6.63
2019-04-30T12:37:18.992Z,15.13
2019-04-30T12:39:49.164Z,22.37
2019-04-30T12:42:18.856Z,13.07
2019-04-30T12:44:49.440Z,15.83
2019-04-30T12:47:21.763Z,10.27
2019-04-30T12:49:53.443Z,13.90
2019-04-30T12:52:29.889Z,10.57
2019-04-30T12:55:15.145Z,7.53
2019-04-30T12:57:41.303Z,22.90
2019-04-30T13:00:11.931Z,12.57
2019-04-30T13:02:40.656Z,10.40
2019-04-30T13:05:10.790Z,10.63
2019-04-30T13:07:40.410Z,15.43
2019-04-30T13:10:09.994Z,8.80
2019-04-30T13:12:39.732Z,17.27
2019-04-30T13:15:10.886Z,23.30
2019-04-30T13:17:39.661Z,6.33
2019-04-30T13:20:18.615Z,22.90
2019-04-30T13:22:39.343Z,22.33
2019-04-30T13:25:09.526Z,13.93
2019-04-30T13:27:39.871Z,15.40
2019-04-30T13:30:11.366Z,19.33
2019-04-30T13:32:41.657Z,11.30
2019-04-30T13:35:11.331Z,16.17
2019-04-30T13:37:41.620Z,6.87
2019-04-30T13:40:12.114Z,4.83
2019-04-30T13:42:42.526Z,6.90
2019-04-30T13:45:11.440Z,5.90
2019-04-30T13:47:40.157Z,7.20
2019-04-30T13:50:10.078Z,6.67
2019-04-30T13:52:39.036Z,5.07
2019-04-30T13:55:10.730Z,3.63
2019-04-30T13:57:39.288Z,8.17
2019-04-30T14:00:12.247Z,4.37
2019-04-30T14:02:44.800Z,8.60
2019-04-30T14:05:14.730Z,6.47
2019-04-30T14:07:57.059Z,5.13
2019-04-30T14:10:25.982Z,5.87
2019-04-30T14:12:56.266Z,7.30
2019-04-30T14:15:25.373Z,7.00
2019-04-30T14:17:54.224Z,7.70
2019-04-30T14:20:23.119Z,8.07
2019-04-30T14:22:51.993Z,6.40
2019-04-30T14:25:20.706Z,8.83
2019-04-30T14:27:54.530Z,4.70
2019-04-30T14:30:20.805Z,5.37
2019-04-30T14:32:50.757Z,3.93
2019-04-30T14:35:19.625Z,4.17
2019-04-30T14:37:54.577Z,4.87
2019-04-30T14:40:24.138Z,8.47
2019-04-30T14:43:02.156Z,7.13
2019-04-30T14:45:42.299Z,2.70
2019-04-30T14:48:23.743Z,3.63
2019-04-30T14:50:52.746Z,4.37
2019-04-30T14:53:30.524Z,6.37
2019-04-30T14:56:08.884Z,6.07
2019-04-30T14:58:50.055Z,6.47
2019-04-30T15:01:20.347Z,5.23
2019-04-30T15:03:49.542Z,11.13
2019-04-30T15:06:19.410Z,10.43
2019-04-30T15:08:49.502Z,7.37
2019-04-30T15:11:19.053Z,3.33
2019-04-30T15:13:49.420Z,6.03
2019-04-30T15:16:18.224Z,6.60
2019-04-30T15:18:46.941Z,7.70
2019-04-30T15:21:15.813Z,4.53
2019-04-30T15:23:58.548Z,5.87
2019-04-30T15:26:25.205Z,5.80
2019-04-30T15:28:54.150Z,13.40
2019-04-30T15:31:22.868Z,25.40
2019-04-30T15:34:02.561Z,60.23
2019-04-30T15:36:26.504Z,11.07
2019-04-30T15:38:56.796Z,13.87
2019-04-30T15:41:25.771Z,16.70
2019-04-30T15:43:54.486Z,21.10
2019-04-30T15:46:23.507Z,9.20
2019-04-30T15:48:52.372Z,3.67
2019-04-30T15:51:31.483Z,6.67
2019-04-30T15:54:01.255Z,6.90
2019-04-30T15:56:37.132Z,4.47
2019-04-30T15:59:18.971Z,7.53
2019-04-30T16:01:55.185Z,2.73
2019-04-30T16:04:38.498Z,1.60
2019-04-30T16:07:08.487Z,3.43
2019-04-30T16:09:38.851Z,1.77
2019-04-30T16:12:20.103Z,7.57
2019-04-30T16:14:48.596Z,3.93
2019-04-30T16:17:20.591Z,1.33
2019-04-30T16:19:49.527Z,1.53
2019-04-30T16:22:19.221Z,3.67
2019-04-30T16:24:49.603Z,3.30
2019-04-30T16:27:19.159Z,2.93
2019-04-30T16:29:49.807Z,3.43
2019-04-30T16:32:19.267Z,2.40
2019-04-30T16:34:49.846Z,4.80
2019-04-30T16:37:20.243Z,2.40
2019-04-30T16:39:49.071Z,10.23
2019-04-30T16:42:19.052Z,4.00
2019-04-30T16:44:48.030Z,5.50
2019-04-30T16:47:17.194Z,3.33
2019-04-30T16:49:46.058Z,1.53
2019-04-30T16:52:14.811Z,2.90
2019-04-30T16:54:43.526Z,5.03
2019-04-30T16:57:12.309Z,3.90
2019-04-30T16:59:42.340Z,1.20
2019-04-30T17:02:11.845Z,3.60
2019-04-30T17:04:57.527Z,2.37
2019-04-30T17:07:30.887Z,2.83
2019-04-30T17:10:10.060Z,2.13
2019-04-30T17:12:43.100Z,1.77
2019-04-30T17:15:25.625Z,1.90
2019-04-30T17:17:54.360Z,1.20
2019-04-30T17:20:23.088Z,3.33
2019-04-30T17:22:52.145Z,4.33
2019-04-30T17:25:20.836Z,3.63
2019-04-30T17:27:49.553Z,4.13
2019-04-30T17:30:19.696Z,4.27
2019-04-30T17:32:49.869Z,3.33
2019-04-30T17:35:19.103Z,5.53
2019-04-30T17:37:48.058Z,7.70
2019-04-30T17:40:19.102Z,5.57
2019-04-30T17:42:47.551Z,8.77
2019-04-30T17:45:19.379Z,4.90
2019-04-30T17:47:47.921Z,8.57
2019-04-30T17:50:18.600Z,6.33
2019-04-30T17:52:47.235Z,2.53
2019-04-30T17:55:15.960Z,4.53
2019-04-30T17:57:44.688Z,3.67
2019-04-30T18:00:19.372Z,7.30
2019-04-30T18:02:45.412Z,9.77
2019-04-30T18:05:14.130Z,2.37
2019-04-30T18:07:42.897Z,3.30
2019-04-30T18:10:13.207Z,5.00
2019-04-30T18:12:41.930Z,3.33
2019-04-30T18:15:15.854Z,4.23
2019-04-30T18:17:46.234Z,1.93
2019-04-30T18:20:32.365Z,5.83
2019-04-30T18:23:18.750Z,2.70
2019-04-30T18:25:52.881Z,3.33
2019-04-30T18:28:21.595Z,2.97
2019-04-30T18:30:50.421Z,4.40
2019-04-30T18:33:20.089Z,3.90
2019-04-30T18:35:48.819Z,5.40
2019-04-30T18:38:17.850Z,2.83
2019-04-30T18:40:49.557Z,3.33
2019-04-30T18:43:20.539Z,11.40
2019-04-30T18:45:49.484Z,2.83
2019-04-30T18:48:19.531Z,4.10
2019-04-30T18:50:48.503Z,3.53
2019-04-30T18:53:18.742Z,2.83
2019-04-30T18:55:50.521Z,2.27
2019-04-30T18:58:19.999Z,1.67
2019-04-30T19:00:49.473Z,3.30
2019-04-30T19:03:21.767Z,2.17
2019-04-30T19:05:51.228Z,3.63
2019-04-30T19:08:21.528Z,2.23
2019-04-30T19:11:08.995Z,2.10
2019-04-30T19:13:56.221Z,1.37
2019-04-30T19:16:29.533Z,1.83
2019-04-30T19:19:00.978Z,1.90
2019-04-30T19:21:29.817Z,1.77
2019-04-30T19:23:59.496Z,1.00
2019-04-30T19:26:29.296Z,2.23
2019-04-30T19:28:58.083Z,1.23
2019-04-30T19:31:29.549Z,2.10
2019-04-30T19:33:58.853Z,3.07
2019-04-30T19:36:35.899Z,2.10
2019-04-30T19:38:59.789Z,1.87
2019-04-30T19:41:28.830Z,3.93
2019-04-30T19:43:57.602Z,2.77
2019-04-30T19:46:26.355Z,1.20
2019-04-30T19:48:55.071Z,4.33
2019-04-30T19:51:23.798Z,22.70
2019-04-30T19:53:52.679Z,5.47
2019-04-30T19:56:21.395Z,1.50
2019-04-30T19:59:01.457Z,4.07
2019-04-30T20:01:20.723Z,1.63
2019-04-30T20:03:49.438Z,1.00
2019-04-30T20:06:19.148Z,2.53
2019-04-30T20:08:48.220Z,1.80
2019-04-30T20:11:16.960Z,0.83
2019-04-30T20:13:45.665Z,1.20
2019-04-30T20:16:14.456Z,3.20
2019-04-30T20:18:43.186Z,2.20
2019-04-30T20:21:25.334Z,3.77
2019-04-30T20:23:46.879Z,1.53
2019-04-30T20:26:15.581Z,3.17
2019-04-30T20:28:44.393Z,2.13
2019-04-30T20:31:13.372Z,1.20
2019-04-30T20:33:42.090Z,3.23
2019-04-30T20:36:10.808Z,3.40
2019-04-30T20:38:41.329Z,7.73
2019-04-30T20:41:10.983Z,5.53
2019-04-30T20:43:39.734Z,3.80
2019-04-30T20:46:08.759Z,2.33
2019-04-30T20:48:39.306Z,1.83
2019-04-30T20:51:09.543Z,3.50
2019-04-30T20:53:39.054Z,1.50
2019-04-30T20:56:09.305Z,1.33
2019-04-30T20:58:39.075Z,2.43
2019-04-30T21:01:09.635Z,4.40
2019-04-30T21:03:39.550Z,1.33
2019-04-30T21:06:08.861Z,1.43
2019-04-30T21:08:37.877Z,5.40
2019-04-30T21:11:06.598Z,1.67
2019-04-30T21:13:35.311Z,3.30
2019-04-30T21:16:04.203Z,2.23
2019-04-30T21:18:32.921Z,4.73
2019-04-30T21:21:01.632Z,1.90
2019-04-30T21:23:30.438Z,5.10
2019-04-30T21:25:59.168Z,4.23
2019-04-30T21:28:29.749Z,2.50
2019-04-30T21:31:00.872Z,1.97
2019-04-30T21:33:49.261Z,4.77
2019-04-30T21:36:19.195Z,1.40
2019-04-30T21:38:49.032Z,1.90
2019-04-30T21:41:19.530Z,3.00
2019-04-30T21:43:48.516Z,4.10
2019-04-30T21:46:19.075Z,1.67
2019-04-30T21:48:48.788Z,1.70
2019-04-30T21:51:19.276Z,4.00
2019-04-30T21:53:50.320Z,1.83
2019-04-30T21:56:18.565Z,6.60
2019-04-30T21:58:48.259Z,10.43
2019-04-30T22:01:18.647Z,3.43
2019-04-30T22:03:47.774Z,4.87
2019-04-30T22:06:16.564Z,4.73
2019-04-30T22:08:45.271Z,5.13
2019-04-30T22:11:19.838Z,2.73
2019-04-30T22:13:54.850Z,1.37
2019-04-30T22:16:26.590Z,2.23
2019-04-30T22:18:55.304Z,4.13
2019-04-30T22:21:24.172Z,4.03
2019-04-30T22:23:52.891Z,4.53
2019-04-30T22:26:21.608Z,4.60
2019-04-30T22:28:50.483Z,7.33
2019-04-30T22:31:19.768Z,3.30
2019-04-30T22:33:49.117Z,4.07
2019-04-30T22:36:25.729Z,2.60
2019-04-30T22:38:56.024Z,3.63
2019-04-30T22:41:29.798Z,1.80
2019-04-30T22:43:58.533Z,2.90
2019-04-30T22:46:29.252Z,2.77
2019-04-30T22:48:57.738Z,1.40
2019-04-30T22:51:26.532Z,2.70
2019-04-30T22:53:55.244Z,2.83
2019-04-30T22:56:24.022Z,3.77
2019-04-30T22:58:52.734Z,4.00
2019-04-30T23:01:25.773Z,2.53
2019-04-30T23:03:59.014Z,1.73
2019-04-30T23:06:27.739Z,2.90
2019-04-30T23:08:56.446Z,1.10
2019-04-30T23:11:26.460Z,2.00
2019-04-30T23:13:55.178Z,2.80
2019-04-30T23:16:23.897Z,1.10
2019-04-30T23:18:53.472Z,2.07
2019-04-30T23:21:22.188Z,1.23
2019-04-30T23:23:50.904Z,1.63
2019-04-30T23:26:19.682Z,4.37
2019-04-30T23:28:48.406Z,1.80
2019-04-30T23:31:17.119Z,1.63
2019-04-30T23:33:45.876Z,1.47
2019-04-30T23:36:14.658Z,1.90
2019-04-30T23:38:43.372Z,1.70
2019-04-30T23:41:12.327Z,3.50
2019-04-30T23:43:41.046Z,2.97
2019-04-30T23:46:09.755Z,1.37
2019-04-30T23:48:38.626Z,2.43
2019-04-30T23:51:07.338Z,3.43
2019-04-30T23:53:36.059Z,3.00
2019-04-30T23:56:05.085Z,2.40
2019-04-30T23:58:33.795Z,1.37
